createdAt,value
2022-09-11T00:00:12.218Z,26.18
2022-09-11T00:01:12.223Z,26.25
2022-09-11T00:02:12.251Z,26.27
2022-09-11T00:03:12.184Z,26.20
2022-09-11T00:04:12.194Z,26.18
2022-09-11T00:05:12.161Z,26.17
2022-09-11T00:06:12.153Z,26.25
2022-09-11T00:07:12.170Z,26.22
2022-09-11T00:08:12.129Z,26.18
2022-09-11T00:09:12.117Z,26.22
2022-09-11T00:10:12.108Z,26.20
2022-09-11T00:11:12.095Z,26.21
2022-09-11T00:12:12.085Z,26.24
2022-09-11T00:13:12.080Z,26.12
2022-09-11T00:14:12.063Z,26.21
2022-09-11T00:15:12.052Z,26.21
2022-09-11T00:16:12.093Z,26.20
2022-09-11T00:17:12.032Z,26.20
2022-09-11T00:18:12.017Z,26.20
2022-09-11T00:19:12.012Z,26.15
2022-09-11T00:20:12.064Z,26.18
2022-09-11T00:21:11.985Z,26.15
2022-09-11T00:22:11.975Z,26.17
2022-09-11T00:23:11.963Z,26.08
2022-09-11T00:24:11.952Z,26.20
2022-09-11T00:25:12.441Z,26.18
2022-09-11T00:26:11.930Z,26.24
2022-09-11T00:27:11.919Z,26.08
2022-09-11T00:28:11.909Z,26.04
2022-09-11T00:29:11.898Z,26.04
2022-09-11T00:30:11.887Z,26.04
2022-09-11T00:31:11.929Z,26.21
2022-09-11T00:32:11.865Z,26.09
2022-09-11T00:33:11.854Z,26.08
2022-09-11T00:34:11.843Z,26.18
2022-09-11T00:35:11.833Z,26.04
2022-09-11T00:36:11.841Z,26.05
2022-09-11T00:37:11.836Z,26.06
2022-09-11T00:38:16.635Z,26.18
2022-09-11T00:39:12.788Z,26.06
2022-09-11T00:40:11.836Z,26.05
2022-09-11T00:41:11.765Z,26.06
2022-09-11T00:42:11.757Z,26.06
2022-09-11T00:43:11.774Z,26.11
2022-09-11T00:44:11.732Z,26.04
2022-09-11T00:45:11.722Z,26.08
2022-09-11T00:46:11.765Z,26.04
2022-09-11T00:47:11.699Z,26.04
2022-09-11T00:48:11.687Z,26.04
2022-09-11T00:49:11.682Z,26.02
2022-09-11T00:50:11.666Z,26.06
2022-09-11T00:51:11.655Z,26.08
2022-09-11T00:52:11.663Z,26.11
2022-09-11T00:53:11.638Z,26.11
2022-09-11T00:54:11.622Z,26.08
2022-09-11T00:55:11.617Z,26.01
2022-09-11T00:56:11.600Z,26.04
2022-09-11T00:57:11.591Z,26.06
2022-09-11T00:58:11.577Z,26.08
2022-09-11T00:59:11.567Z,26.05
2022-09-11T01:00:11.555Z,26.01
2022-09-11T01:01:11.609Z,26.11
2022-09-11T01:02:11.553Z,26.08
2022-09-11T01:03:11.523Z,26.08
2022-09-11T01:04:11.511Z,26.06
2022-09-11T01:05:11.503Z,26.04
2022-09-11T01:06:11.491Z,26.01
2022-09-11T01:07:11.504Z,26.04
2022-09-11T01:08:11.504Z,26.04
2022-09-11T01:09:11.472Z,26.06
2022-09-11T01:10:11.446Z,26.01
2022-09-11T01:11:11.437Z,26.11
2022-09-11T01:12:11.423Z,26.05
2022-09-11T01:13:11.429Z,26.05
2022-09-11T01:14:11.430Z,26.08
2022-09-11T01:15:11.393Z,26.12
2022-09-11T01:16:11.401Z,26.06
2022-09-11T01:17:11.367Z,26.06
2022-09-11T01:18:11.358Z,26.06
2022-09-11T01:19:11.376Z,26.12
2022-09-11T01:20:11.336Z,26.04
2022-09-11T01:21:11.324Z,26.05
2022-09-11T01:22:11.314Z,26.02
2022-09-11T01:23:11.302Z,26.11
2022-09-11T01:24:11.313Z,26.05
2022-09-11T01:25:11.287Z,26.05
2022-09-11T01:26:11.269Z,26.04
2022-09-11T01:27:11.264Z,26.02
2022-09-11T01:28:11.247Z,26.06
2022-09-11T01:29:11.237Z,26.04
2022-09-11T01:30:11.962Z,25.99
2022-09-11T01:31:11.285Z,26.02
2022-09-11T01:32:11.204Z,25.94
2022-09-11T01:33:11.193Z,26.02
2022-09-11T01:34:11.181Z,26.06
2022-09-11T01:35:11.172Z,26.08
2022-09-11T01:36:11.160Z,26.01
2022-09-11T01:37:11.157Z,26.06
2022-09-11T01:38:11.136Z,26.02
2022-09-11T01:39:11.127Z,26.06
2022-09-11T01:40:11.195Z,26.01
2022-09-11T01:41:11.103Z,26.08
2022-09-11T01:42:11.094Z,26.01
2022-09-11T01:43:11.087Z,26.01
2022-09-11T01:44:11.073Z,25.94
2022-09-11T01:45:11.059Z,25.99
2022-09-11T01:46:11.048Z,26.05
2022-09-11T01:47:11.038Z,25.91
2022-09-11T01:48:11.027Z,25.94
2022-09-11T01:49:11.032Z,25.97
2022-09-11T01:50:11.004Z,26.02
2022-09-11T01:51:10.998Z,25.99
2022-09-11T01:52:10.982Z,25.99
2022-09-11T01:53:10.971Z,25.91
2022-09-11T01:54:10.961Z,25.99
2022-09-11T01:55:10.978Z,25.98
2022-09-11T01:56:10.967Z,25.91
2022-09-11T01:57:10.927Z,25.93
2022-09-11T01:58:10.915Z,25.90
2022-09-11T01:59:10.905Z,25.99
2022-09-11T02:00:10.893Z,26.05
2022-09-11T02:01:11.021Z,25.93
2022-09-11T02:02:10.972Z,25.91
2022-09-11T02:03:10.861Z,25.89
2022-09-11T02:04:10.850Z,25.93
2022-09-11T02:05:10.841Z,25.93
2022-09-11T02:06:10.828Z,25.94
2022-09-11T02:07:10.823Z,25.97
2022-09-11T02:08:10.808Z,25.97
2022-09-11T02:09:10.794Z,25.91
2022-09-11T02:10:10.784Z,25.93
2022-09-11T02:11:10.775Z,25.91
2022-09-11T02:12:10.783Z,25.91
2022-09-11T02:13:10.758Z,25.93
2022-09-11T02:14:10.739Z,25.89
2022-09-11T02:15:10.728Z,25.90
2022-09-11T02:16:10.801Z,25.90
2022-09-11T02:17:10.707Z,25.91
2022-09-11T02:18:10.696Z,25.97
2022-09-11T02:19:10.705Z,25.94
2022-09-11T02:20:10.673Z,25.93
2022-09-11T02:21:10.664Z,25.93
2022-09-11T02:22:10.652Z,25.93
2022-09-11T02:23:10.641Z,25.90
2022-09-11T02:24:10.630Z,25.89
2022-09-11T02:25:10.626Z,25.87
2022-09-11T02:26:10.607Z,25.89
2022-09-11T02:27:10.597Z,25.87
2022-09-11T02:28:10.605Z,25.87
2022-09-11T02:29:10.574Z,25.91
2022-09-11T02:30:10.563Z,25.94
2022-09-11T02:31:10.620Z,25.89
2022-09-11T02:32:10.542Z,25.93
2022-09-11T02:33:10.529Z,25.91
2022-09-11T02:34:10.519Z,25.93
2022-09-11T02:35:10.508Z,25.93
2022-09-11T02:36:10.498Z,26.02
2022-09-11T02:37:10.509Z,25.99
2022-09-11T02:38:10.476Z,25.91
2022-09-11T02:39:10.464Z,25.91
2022-09-11T02:40:10.538Z,25.91
2022-09-11T02:41:10.443Z,25.91
2022-09-11T02:42:10.432Z,25.89
2022-09-11T02:43:10.426Z,25.87
2022-09-11T02:44:10.431Z,25.98
2022-09-11T02:45:10.397Z,25.94
2022-09-11T02:46:10.387Z,25.91
2022-09-11T02:47:10.376Z,25.91
2022-09-11T02:48:10.368Z,25.94
2022-09-11T02:49:10.362Z,25.89
2022-09-11T02:50:10.343Z,25.90
2022-09-11T02:51:10.331Z,25.91
2022-09-11T02:52:10.321Z,25.94
2022-09-11T02:53:10.310Z,25.98
2022-09-11T02:54:10.300Z,25.94
2022-09-11T02:55:10.310Z,25.90
2022-09-11T02:56:10.278Z,25.86
2022-09-11T02:57:10.265Z,25.90
2022-09-11T02:58:10.255Z,25.86
2022-09-11T02:59:10.243Z,25.98
2022-09-11T03:00:10.252Z,25.86
2022-09-11T03:01:10.286Z,25.89
2022-09-11T03:02:10.246Z,25.97
2022-09-11T03:03:10.200Z,25.91
2022-09-11T03:04:10.188Z,25.91
2022-09-11T03:05:10.177Z,25.91
2022-09-11T03:06:10.166Z,25.94
2022-09-11T03:07:10.187Z,25.89
2022-09-11T03:08:10.144Z,25.93
2022-09-11T03:09:10.133Z,25.90
2022-09-11T03:10:10.121Z,25.97
2022-09-11T03:11:10.110Z,25.91
2022-09-11T03:12:10.105Z,25.94
2022-09-11T03:13:10.095Z,25.93
2022-09-11T03:14:10.078Z,25.86
2022-09-11T03:15:10.068Z,25.94
2022-09-11T03:16:10.165Z,25.90
2022-09-11T03:17:10.050Z,25.90
2022-09-11T03:18:10.033Z,25.93
2022-09-11T03:19:10.029Z,25.93
2022-09-11T03:20:10.022Z,25.93
2022-09-11T03:21:10.000Z,25.84
2022-09-11T03:22:09.989Z,25.97
2022-09-11T03:23:09.978Z,25.89
2022-09-11T03:24:09.966Z,25.90
2022-09-11T03:25:09.963Z,25.93
2022-09-11T03:26:09.946Z,25.91
2022-09-11T03:27:09.935Z,25.91
2022-09-11T03:28:09.922Z,25.90
2022-09-11T03:29:09.911Z,25.91
2022-09-11T03:30:09.903Z,25.93
2022-09-11T03:31:10.053Z,25.87
2022-09-11T03:32:09.900Z,25.97
2022-09-11T03:33:09.868Z,25.89
2022-09-11T03:34:09.859Z,25.91
2022-09-11T03:35:09.846Z,25.91
2022-09-11T03:36:09.835Z,25.91
2022-09-11T03:37:09.842Z,25.87
2022-09-11T03:38:09.813Z,25.97
2022-09-11T03:39:09.802Z,25.91
2022-09-11T03:40:09.848Z,25.87
2022-09-11T03:41:09.780Z,25.94
2022-09-11T03:42:09.769Z,25.87
2022-09-11T03:43:09.807Z,25.93
2022-09-11T03:44:09.747Z,25.91
2022-09-11T03:45:09.736Z,25.86
2022-09-11T03:46:09.726Z,25.91
2022-09-11T03:47:09.713Z,25.86
2022-09-11T03:48:09.723Z,25.86
2022-09-11T03:49:09.697Z,25.89
2022-09-11T03:50:09.683Z,25.91
2022-09-11T03:51:09.671Z,25.87
2022-09-11T03:52:09.658Z,25.93
2022-09-11T03:53:09.648Z,25.87
2022-09-11T03:54:09.637Z,25.91
2022-09-11T03:55:09.632Z,25.90
2022-09-11T03:56:09.617Z,25.93
2022-09-11T03:57:09.604Z,25.93
2022-09-11T03:58:09.594Z,25.91
2022-09-11T03:59:09.582Z,25.89
2022-09-11T04:00:09.576Z,25.86
2022-09-11T04:01:09.624Z,25.89
2022-09-11T04:02:09.597Z,25.91
2022-09-11T04:03:09.539Z,25.84
2022-09-11T04:04:09.548Z,25.90
2022-09-11T04:05:09.514Z,25.89
2022-09-11T04:06:09.506Z,25.93
2022-09-11T04:07:09.513Z,25.86
2022-09-11T04:08:09.484Z,25.91
2022-09-11T04:09:09.470Z,25.87
2022-09-11T04:10:09.460Z,25.89
2022-09-11T04:11:09.452Z,25.90
2022-09-11T04:12:09.441Z,25.87
2022-09-11T04:13:09.443Z,25.86
2022-09-11T04:14:09.416Z,25.90
2022-09-11T04:15:09.407Z,25.77
2022-09-11T04:16:09.410Z,25.94
2022-09-11T04:17:09.382Z,25.83
2022-09-11T04:18:09.378Z,25.89
2022-09-11T04:19:09.392Z,25.91
2022-09-11T04:20:09.371Z,25.90
2022-09-11T04:21:09.339Z,25.86
2022-09-11T04:22:09.328Z,25.79
2022-09-11T04:23:09.322Z,25.87
2022-09-11T04:24:09.305Z,25.87
2022-09-11T04:25:09.300Z,25.90
2022-09-11T04:26:09.283Z,25.87
2022-09-11T04:27:09.273Z,25.79
2022-09-11T04:28:09.262Z,25.75
2022-09-11T04:29:09.252Z,25.89
2022-09-11T04:30:09.240Z,25.80
2022-09-11T04:31:09.236Z,25.80
2022-09-11T04:32:09.218Z,25.80
2022-09-11T04:33:09.209Z,25.82
2022-09-11T04:34:09.201Z,25.80
2022-09-11T04:35:09.187Z,25.84
2022-09-11T04:36:09.196Z,25.84
2022-09-11T04:37:09.183Z,25.82
2022-09-11T04:38:09.151Z,25.89
2022-09-11T04:39:09.144Z,25.79
2022-09-11T04:40:09.178Z,25.87
2022-09-11T04:41:09.118Z,25.91
2022-09-11T04:42:09.109Z,25.87
2022-09-11T04:43:09.129Z,25.80
2022-09-11T04:44:09.088Z,25.89
2022-09-11T04:45:09.074Z,25.75
2022-09-11T04:46:09.063Z,25.91
2022-09-11T04:47:09.051Z,25.84
2022-09-11T04:48:09.041Z,25.80
2022-09-11T04:49:09.037Z,25.91
2022-09-11T04:50:09.020Z,25.89
2022-09-11T04:51:09.007Z,25.82
2022-09-11T04:52:09.018Z,25.91
2022-09-11T04:53:08.987Z,25.89
2022-09-11T04:54:08.975Z,25.83
2022-09-11T04:55:08.993Z,25.84
2022-09-11T04:56:08.953Z,25.86
2022-09-11T04:57:08.941Z,25.83
2022-09-11T04:58:08.932Z,25.91
2022-09-11T04:59:08.919Z,25.89
2022-09-11T05:00:08.910Z,25.80
2022-09-11T05:01:09.011Z,25.80
2022-09-11T05:02:08.907Z,25.87
2022-09-11T05:03:08.875Z,25.83
2022-09-11T05:04:08.864Z,25.86
2022-09-11T05:05:08.853Z,25.93
2022-09-11T05:06:08.843Z,25.89
2022-09-11T05:07:08.838Z,25.79
2022-09-11T05:08:08.841Z,25.90
2022-09-11T05:09:08.810Z,25.87
2022-09-11T05:10:08.798Z,25.84
2022-09-11T05:11:08.789Z,25.77
2022-09-11T05:12:08.778Z,25.74
2022-09-11T05:13:08.786Z,25.83
2022-09-11T05:14:08.754Z,25.84
2022-09-11T05:15:08.742Z,25.93
2022-09-11T05:16:08.808Z,25.80
2022-09-11T05:17:08.720Z,25.91
2022-09-11T05:18:08.710Z,25.86
2022-09-11T05:19:08.715Z,25.77
2022-09-11T05:20:11.798Z,25.91
2022-09-11T05:21:08.677Z,25.94
2022-09-11T05:22:08.667Z,25.87
2022-09-11T05:23:08.656Z,25.89
2022-09-11T05:24:08.687Z,25.84
2022-09-11T05:25:08.640Z,25.86
2022-09-11T05:26:08.623Z,25.91
2022-09-11T05:27:08.611Z,25.93
2022-09-11T05:28:08.600Z,25.91
2022-09-11T05:29:08.590Z,25.90
2022-09-11T05:30:08.578Z,25.89
2022-09-11T05:31:08.597Z,25.89
2022-09-11T05:32:08.555Z,25.91
2022-09-11T05:33:08.544Z,25.91
2022-09-11T05:34:08.535Z,25.98
2022-09-11T05:35:08.524Z,25.97
2022-09-11T05:36:08.512Z,25.89
2022-09-11T05:37:08.511Z,25.91
2022-09-11T05:38:08.491Z,25.87
2022-09-11T05:39:08.478Z,25.87
2022-09-11T05:40:08.525Z,25.91
2022-09-11T05:41:08.457Z,25.89
2022-09-11T05:42:08.448Z,25.99
2022-09-11T05:43:08.441Z,25.90
2022-09-11T05:44:08.431Z,25.93
2022-09-11T05:45:08.412Z,25.89
2022-09-11T05:46:08.451Z,25.94
2022-09-11T05:47:08.392Z,25.89
2022-09-11T05:48:08.379Z,25.99
2022-09-11T05:49:08.390Z,25.90
2022-09-11T05:50:08.358Z,25.97
2022-09-11T05:51:08.346Z,25.97
2022-09-11T05:52:08.335Z,25.97
2022-09-11T05:53:08.324Z,25.93
2022-09-11T05:54:08.312Z,25.93
2022-09-11T05:55:08.317Z,25.94
2022-09-11T05:56:08.313Z,26.04
2022-09-11T05:57:08.281Z,25.93
2022-09-11T05:58:08.268Z,25.99
2022-09-11T05:59:08.258Z,25.94
2022-09-11T06:00:08.247Z,25.89
2022-09-11T06:01:08.298Z,25.93
2022-09-11T06:02:08.237Z,26.04
2022-09-11T06:03:09.846Z,25.94
2022-09-11T06:04:08.203Z,26.02
2022-09-11T06:05:08.191Z,25.99
2022-09-11T06:06:08.180Z,26.01
2022-09-11T06:07:08.175Z,26.05
2022-09-11T06:08:08.159Z,26.06
2022-09-11T06:09:08.147Z,26.15
2022-09-11T06:10:08.137Z,26.05
2022-09-11T06:11:08.125Z,26.01
2022-09-11T06:12:08.135Z,26.01
2022-09-11T06:13:08.134Z,26.05
2022-09-11T06:14:08.096Z,26.05
2022-09-11T06:15:16.629Z,26.01
2022-09-11T06:16:09.112Z,25.93
2022-09-11T06:17:08.060Z,26.05
2022-09-11T06:18:08.049Z,25.94
2022-09-11T06:19:08.058Z,25.97
2022-09-11T06:20:08.026Z,25.93
2022-09-11T06:21:08.014Z,25.98
2022-09-11T06:22:08.003Z,25.99
2022-09-11T06:23:09.411Z,25.98
2022-09-11T06:24:07.981Z,25.98
2022-09-11T06:25:07.978Z,25.91
2022-09-11T06:26:07.960Z,25.98
2022-09-11T06:27:07.949Z,25.99
2022-09-11T06:28:07.956Z,26.02
2022-09-11T06:29:07.927Z,25.98
2022-09-11T06:30:07.917Z,26.04
2022-09-11T06:31:08.029Z,26.04
2022-09-11T06:32:07.895Z,25.93
2022-09-11T06:33:07.882Z,25.94
2022-09-11T06:34:07.875Z,26.02
2022-09-11T06:35:07.861Z,26.05
2022-09-11T06:36:07.856Z,26.05
2022-09-11T06:37:07.846Z,26.02
2022-09-11T06:38:07.827Z,26.08
2022-09-11T06:39:07.818Z,25.93
2022-09-11T06:40:07.846Z,26.09
2022-09-11T06:41:07.795Z,26.05
2022-09-11T06:42:07.785Z,26.11
2022-09-11T06:43:07.779Z,26.06
2022-09-11T06:44:07.783Z,26.09
2022-09-11T06:45:07.750Z,26.02
2022-09-11T06:46:07.794Z,26.01
2022-09-11T06:47:07.728Z,26.04
2022-09-11T06:48:07.718Z,26.02
2022-09-11T06:49:07.728Z,25.99
2022-09-11T06:50:07.697Z,26.02
2022-09-11T06:51:07.689Z,25.99
2022-09-11T06:52:07.674Z,25.94
2022-09-11T06:53:07.662Z,26.05
2022-09-11T06:54:07.653Z,26.04
2022-09-11T06:55:07.687Z,25.97
2022-09-11T06:56:07.629Z,25.99
2022-09-11T06:57:07.619Z,25.97
2022-09-11T06:58:07.607Z,26.02
2022-09-11T06:59:07.596Z,26.04
2022-09-11T07:00:07.604Z,26.05
2022-09-11T07:01:07.662Z,26.08
2022-09-11T07:02:07.650Z,25.93
2022-09-11T07:03:07.553Z,26.01
2022-09-11T07:04:07.541Z,25.94
2022-09-11T07:05:07.530Z,26.12
2022-09-11T07:06:07.518Z,26.02
2022-09-11T07:07:07.526Z,26.01
2022-09-11T07:08:07.496Z,26.01
2022-09-11T07:09:07.487Z,26.11
2022-09-11T07:10:07.475Z,26.05
2022-09-11T07:11:07.464Z,25.97
2022-09-11T07:12:07.452Z,26.11
2022-09-11T07:13:07.448Z,26.05
2022-09-11T07:14:07.431Z,26.12
2022-09-11T07:15:07.420Z,26.11
2022-09-11T07:16:07.446Z,26.08
2022-09-11T07:17:07.399Z,26.08
2022-09-11T07:18:07.385Z,26.01
2022-09-11T07:19:07.404Z,26.05
2022-09-11T07:20:07.365Z,26.06
2022-09-11T07:21:07.352Z,26.05
2022-09-11T07:22:07.342Z,26.04
2022-09-11T07:23:07.331Z,26.06
2022-09-11T07:24:07.321Z,26.04
2022-09-11T07:25:07.882Z,26.06
2022-09-11T07:26:07.299Z,26.04
2022-09-11T07:27:07.287Z,26.12
2022-09-11T07:28:07.276Z,26.02
2022-09-11T07:29:07.266Z,26.05
2022-09-11T07:30:07.255Z,26.05
2022-09-11T07:31:07.377Z,26.01
2022-09-11T07:32:07.254Z,25.98
2022-09-11T07:33:07.220Z,26.12
2022-09-11T07:34:07.209Z,26.05
2022-09-11T07:35:07.200Z,26.09
2022-09-11T07:36:07.188Z,26.05
2022-09-11T07:37:07.183Z,26.09
2022-09-11T07:38:07.169Z,26.08
2022-09-11T07:39:07.155Z,26.12
2022-09-11T07:40:07.212Z,26.08
2022-09-11T07:41:07.134Z,26.11
2022-09-11T07:42:07.121Z,26.08
2022-09-11T07:43:07.127Z,26.15
2022-09-11T07:44:07.101Z,26.21
2022-09-11T07:45:07.089Z,26.15
2022-09-11T07:46:07.110Z,26.21
2022-09-11T07:47:07.068Z,26.21
2022-09-11T07:48:07.076Z,26.22
2022-09-11T07:49:07.050Z,26.20
2022-09-11T07:50:07.035Z,26.31
2022-09-11T07:51:07.023Z,26.29
2022-09-11T07:52:07.011Z,26.31
2022-09-11T07:53:07.000Z,26.35
2022-09-11T07:54:06.990Z,26.37
2022-09-11T07:55:06.988Z,26.35
2022-09-11T07:56:06.967Z,26.32
2022-09-11T07:57:06.961Z,26.42
2022-09-11T07:58:06.946Z,26.39
2022-09-11T07:59:06.934Z,26.42
2022-09-11T08:00:06.923Z,26.40
2022-09-11T08:01:07.041Z,26.44
2022-09-11T08:02:06.918Z,26.47
2022-09-11T08:03:06.890Z,26.46
2022-09-11T08:04:06.965Z,26.57
2022-09-11T08:05:06.869Z,26.58
2022-09-11T08:06:06.858Z,26.57
2022-09-11T08:07:06.875Z,26.54
2022-09-11T08:08:06.835Z,26.52
2022-09-11T08:09:06.823Z,26.58
2022-09-11T08:10:26.061Z,26.55
2022-09-11T08:11:07.800Z,26.49
2022-09-11T08:12:06.792Z,26.58
2022-09-11T08:13:09.417Z,26.49
2022-09-11T08:14:06.772Z,26.58
2022-09-11T08:15:06.758Z,26.49
2022-09-11T08:16:06.889Z,26.55
2022-09-11T08:17:06.736Z,26.54
2022-09-11T08:18:06.727Z,26.57
2022-09-11T08:19:06.729Z,26.61
2022-09-11T08:20:06.722Z,26.55
2022-09-11T08:21:09.645Z,26.58
2022-09-11T08:22:07.682Z,26.59
2022-09-11T08:23:06.672Z,26.65
2022-09-11T08:24:06.659Z,26.64
2022-09-11T08:25:06.656Z,26.64
2022-09-11T08:26:06.641Z,26.54
2022-09-11T08:27:06.626Z,26.62
2022-09-11T08:28:06.619Z,26.57
2022-09-11T08:29:06.604Z,26.64
2022-09-11T08:30:06.593Z,26.58
2022-09-11T08:31:06.639Z,26.62
2022-09-11T08:32:06.575Z,26.62
2022-09-11T08:33:06.560Z,26.59
2022-09-11T08:34:06.549Z,26.62
2022-09-11T08:35:06.538Z,26.69
2022-09-11T08:36:06.545Z,26.58
2022-09-11T08:37:06.545Z,26.62
2022-09-11T08:38:06.506Z,26.67
2022-09-11T08:39:06.495Z,26.69
2022-09-11T08:40:06.535Z,26.57
2022-09-11T08:41:06.472Z,26.58
2022-09-11T08:42:06.460Z,26.69
2022-09-11T08:43:06.471Z,26.57
2022-09-11T08:44:06.438Z,26.76
2022-09-11T08:45:06.427Z,26.76
2022-09-11T08:46:06.468Z,26.77
2022-09-11T08:47:06.405Z,26.69
2022-09-11T08:48:06.394Z,26.69
2022-09-11T08:49:06.389Z,26.76
2022-09-11T08:50:06.376Z,26.72
2022-09-11T08:51:06.364Z,26.72
2022-09-11T08:52:06.371Z,26.64
2022-09-11T08:53:10.899Z,26.76
2022-09-11T08:54:07.343Z,26.64
2022-09-11T08:55:06.317Z,26.74
2022-09-11T08:56:06.307Z,26.72
2022-09-11T08:57:06.296Z,26.69
2022-09-11T08:58:06.285Z,26.73
2022-09-11T08:59:06.276Z,26.62
2022-09-11T09:00:06.272Z,26.62
2022-09-11T09:01:06.326Z,26.67
2022-09-11T09:02:06.258Z,26.67
2022-09-11T09:03:06.233Z,26.58
2022-09-11T09:04:06.219Z,26.67
2022-09-11T09:05:06.212Z,26.68
2022-09-11T09:06:06.717Z,26.61
2022-09-11T09:07:06.187Z,26.72
2022-09-11T09:08:06.194Z,26.65
2022-09-11T09:09:06.163Z,26.68
2022-09-11T09:10:06.153Z,26.65
2022-09-11T09:11:06.146Z,26.69
2022-09-11T09:12:06.139Z,26.72
2022-09-11T09:13:06.119Z,26.67
2022-09-11T09:14:06.110Z,26.73
2022-09-11T09:15:06.099Z,26.72
2022-09-11T09:16:06.138Z,26.62
2022-09-11T09:17:06.078Z,26.64
2022-09-11T09:18:06.084Z,26.62
2022-09-11T09:19:06.054Z,26.64
2022-09-11T09:20:06.042Z,26.64
2022-09-11T09:21:06.031Z,26.64
2022-09-11T09:22:06.020Z,26.58
2022-09-11T09:23:06.015Z,26.57
2022-09-11T09:24:06.028Z,26.59
2022-09-11T09:25:05.990Z,26.59
2022-09-11T09:26:05.977Z,26.55
2022-09-11T09:27:05.966Z,26.55
2022-09-11T09:28:05.954Z,26.58
2022-09-11T09:29:05.944Z,26.54
2022-09-11T09:30:05.939Z,26.55
2022-09-11T09:31:05.980Z,26.58
2022-09-11T09:32:05.910Z,26.59
2022-09-11T09:33:08.337Z,26.57
2022-09-11T09:34:06.887Z,26.61
2022-09-11T09:35:05.877Z,26.64
2022-09-11T09:36:05.873Z,26.65
2022-09-11T09:37:05.857Z,26.59
2022-09-11T09:38:05.845Z,26.62
2022-09-11T09:39:05.835Z,26.73
2022-09-11T09:40:05.872Z,26.72
2022-09-11T09:41:05.812Z,26.64
2022-09-11T09:42:05.834Z,26.69
2022-09-11T09:43:05.790Z,26.77
2022-09-11T09:44:05.781Z,26.81
2022-09-11T09:45:05.767Z,26.76
2022-09-11T09:46:05.814Z,26.77
2022-09-11T09:47:05.744Z,26.81
2022-09-11T09:48:05.741Z,26.79
2022-09-11T09:49:05.723Z,26.76
2022-09-11T09:50:05.712Z,26.77
2022-09-11T09:51:05.702Z,26.84
2022-09-11T09:52:05.690Z,26.81
2022-09-11T09:53:05.680Z,26.80
2022-09-11T09:54:05.689Z,26.81
2022-09-11T09:55:05.658Z,26.84
2022-09-11T09:56:05.664Z,26.87
2022-09-11T09:57:05.635Z,26.91
2022-09-11T09:58:05.625Z,26.99
2022-09-11T09:59:05.617Z,26.94
2022-09-11T10:00:05.619Z,26.91
2022-09-11T10:01:05.641Z,26.98
2022-09-11T10:02:05.692Z,26.99
2022-09-11T10:03:05.570Z,27.02
2022-09-11T10:04:05.559Z,27.01
2022-09-11T10:05:05.547Z,27.01
2022-09-11T10:06:05.544Z,26.95
2022-09-11T10:07:05.525Z,26.96
2022-09-11T10:08:05.515Z,26.95
2022-09-11T10:09:05.504Z,26.91
2022-09-11T10:10:05.496Z,26.86
2022-09-11T10:11:05.482Z,26.92
2022-09-11T10:12:05.514Z,26.87
2022-09-11T10:13:18.954Z,26.94
2022-09-11T10:14:10.152Z,26.92
2022-09-11T10:15:06.438Z,26.87
2022-09-11T10:16:05.460Z,26.91
2022-09-11T10:17:05.417Z,26.86
2022-09-11T10:18:05.434Z,26.87
2022-09-11T10:19:05.394Z,26.89
2022-09-11T10:20:05.386Z,26.87
2022-09-11T10:21:08.483Z,26.99
2022-09-11T10:22:05.361Z,26.87
2022-09-11T10:23:05.350Z,26.89
2022-09-11T10:24:05.345Z,26.99
2022-09-11T10:25:05.327Z,27.02
2022-09-11T10:26:05.317Z,27.01
2022-09-11T10:27:05.312Z,27.11
2022-09-11T10:28:05.329Z,27.11
2022-09-11T10:29:05.286Z,27.11
2022-09-11T10:30:05.280Z,27.14
2022-09-11T10:31:05.348Z,27.13
2022-09-11T10:32:05.256Z,27.11
2022-09-11T10:33:05.241Z,27.09
2022-09-11T10:34:05.231Z,27.02
2022-09-11T10:35:05.231Z,26.99
2022-09-11T10:36:05.224Z,26.96
2022-09-11T10:37:05.196Z,27.53
2022-09-11T10:38:05.186Z,27.70
2022-09-11T10:39:05.178Z,27.53
2022-09-11T10:40:05.259Z,27.85
2022-09-11T10:41:05.153Z,28.38
2022-09-11T10:42:05.146Z,28.87
2022-09-11T10:43:05.130Z,29.08
2022-09-11T10:44:05.141Z,29.16
2022-09-11T10:45:05.109Z,29.25
2022-09-11T10:46:05.160Z,29.63
2022-09-11T10:47:05.085Z,29.89
2022-09-11T10:48:05.081Z,30.14
2022-09-11T10:49:05.065Z,30.43
2022-09-11T10:50:05.057Z,30.45
2022-09-11T10:51:05.043Z,30.52
2022-09-11T10:52:05.031Z,30.80
2022-09-11T10:53:05.023Z,30.98
2022-09-11T10:54:05.016Z,30.93
2022-09-11T10:55:04.998Z,30.53
2022-09-11T10:56:04.989Z,30.15
2022-09-11T10:57:04.976Z,29.82
2022-09-11T10:58:04.966Z,29.62
2022-09-11T10:59:04.955Z,29.41
2022-09-11T11:00:04.969Z,29.25
2022-09-11T11:01:05.038Z,29.18
2022-09-11T11:02:04.980Z,29.04
2022-09-11T11:03:04.913Z,28.96
2022-09-11T11:04:08.146Z,28.90
2022-09-11T11:05:05.894Z,28.75
2022-09-11T11:06:04.878Z,28.69
2022-09-11T11:07:04.868Z,28.59
2022-09-11T11:08:04.857Z,28.54
2022-09-11T11:09:04.848Z,28.50
2022-09-11T11:10:04.834Z,28.48
2022-09-11T11:11:04.838Z,28.36
2022-09-11T11:12:04.813Z,28.40
2022-09-11T11:13:04.802Z,28.25
2022-09-11T11:14:04.792Z,28.17
2022-09-11T11:15:04.780Z,28.17
2022-09-11T11:16:04.817Z,28.09
2022-09-11T11:17:04.875Z,28.06
2022-09-11T11:18:04.748Z,28.01
2022-09-11T11:19:04.737Z,27.99
2022-09-11T11:20:04.729Z,27.92
2022-09-11T11:21:04.716Z,27.86
2022-09-11T11:22:04.704Z,27.89
2022-09-11T11:23:04.703Z,27.85
2022-09-11T11:24:04.683Z,27.77
2022-09-11T11:25:04.671Z,27.67
2022-09-11T11:26:04.662Z,27.71
2022-09-11T11:27:04.743Z,27.69
2022-09-11T11:28:04.640Z,27.74
2022-09-11T11:29:04.634Z,27.64
2022-09-11T11:30:04.621Z,27.48
2022-09-11T11:31:04.628Z,27.64
2022-09-11T11:32:04.613Z,27.61
2022-09-11T11:33:04.583Z,27.54
2022-09-11T11:34:04.572Z,27.53
2022-09-11T11:35:04.567Z,27.53
2022-09-11T11:36:04.549Z,27.48
2022-09-11T11:37:04.605Z,27.51
2022-09-11T11:38:04.528Z,27.51
2022-09-11T11:39:04.520Z,27.73
2022-09-11T11:40:04.621Z,27.88
2022-09-11T11:41:04.502Z,27.86
2022-09-11T11:42:04.486Z,27.92
2022-09-11T11:43:04.474Z,28.32
2022-09-11T11:44:04.462Z,28.50
2022-09-11T11:45:04.457Z,28.70
2022-09-11T11:46:04.511Z,28.73
2022-09-11T11:47:04.451Z,28.72
2022-09-11T11:48:04.444Z,28.85
2022-09-11T11:49:04.408Z,29.06
2022-09-11T11:50:04.431Z,29.15
2022-09-11T11:51:04.387Z,29.23
2022-09-11T11:52:04.377Z,29.29
2022-09-11T11:53:04.380Z,29.40
2022-09-11T11:54:04.356Z,29.43
2022-09-11T11:55:04.345Z,29.47
2022-09-11T11:56:04.335Z,29.47
2022-09-11T11:57:04.322Z,29.52
2022-09-11T11:58:04.315Z,29.65
2022-09-11T11:59:04.309Z,29.53
2022-09-11T12:00:04.289Z,29.66
2022-09-11T12:01:04.279Z,29.74
2022-09-11T12:02:04.333Z,29.74
2022-09-11T12:03:04.259Z,29.84
2022-09-11T12:04:04.266Z,29.82
2022-09-11T12:05:04.243Z,29.72
2022-09-11T12:06:04.227Z,29.74
2022-09-11T12:07:04.216Z,29.57
2022-09-11T12:08:04.206Z,29.50
2022-09-11T12:09:04.195Z,29.50
2022-09-11T12:10:04.184Z,29.49
2022-09-11T12:11:04.203Z,29.38
2022-09-11T12:12:04.170Z,29.44
2022-09-11T12:13:04.155Z,29.41
2022-09-11T12:14:04.143Z,29.44
2022-09-11T12:15:04.130Z,29.40
2022-09-11T12:16:05.720Z,29.33
2022-09-11T12:17:04.130Z,29.40
2022-09-11T12:18:04.098Z,29.43
2022-09-11T12:19:04.092Z,29.35
2022-09-11T12:20:04.097Z,29.52
2022-09-11T12:21:04.068Z,29.45
2022-09-11T12:22:04.057Z,29.44
2022-09-11T12:23:04.066Z,29.43
2022-09-11T12:24:04.038Z,29.34
2022-09-11T12:25:04.031Z,29.31
2022-09-11T12:26:04.015Z,29.31
2022-09-11T12:27:04.004Z,29.38
2022-09-11T12:28:03.997Z,29.23
2022-09-11T12:29:03.988Z,29.25
2022-09-11T12:30:03.971Z,29.23
2022-09-11T12:31:04.001Z,29.18
2022-09-11T12:32:03.949Z,29.19
2022-09-11T12:33:03.939Z,29.13
2022-09-11T12:34:03.929Z,29.11
2022-09-11T12:35:03.926Z,29.01
2022-09-11T12:36:03.927Z,29.06
2022-09-11T12:37:03.895Z,28.93
2022-09-11T12:38:03.884Z,29.00
2022-09-11T12:39:03.873Z,28.91
2022-09-11T12:40:03.891Z,28.87
2022-09-11T12:41:03.882Z,28.85
2022-09-11T12:42:03.841Z,28.78
2022-09-11T12:43:07.451Z,28.72
2022-09-11T12:44:04.817Z,28.68
2022-09-11T12:45:03.808Z,28.63
2022-09-11T12:46:03.860Z,28.70
2022-09-11T12:47:03.792Z,28.62
2022-09-11T12:48:03.776Z,28.53
2022-09-11T12:49:21.475Z,28.56
2022-09-11T12:50:04.754Z,28.43
2022-09-11T12:51:03.743Z,28.46
2022-09-11T12:52:03.753Z,28.46